createdAt,value
2018-07-26T00:00:08.866Z,18.60
2018-07-26T00:05:05.316Z,18.50
2018-07-26T00:07:33.426Z,18.50
2018-07-26T00:10:08.223Z,18.50
2018-07-26T00:12:36.166Z,18.40
2018-07-26T00:15:04.522Z,18.30
2018-07-26T00:17:32.866Z,18.20
2018-07-26T00:20:01.365Z,18.10
2018-07-26T00:22:29.337Z,18.00
2018-07-26T00:24:57.244Z,18.00
2018-07-26T00:27:25.748Z,18.10
2018-07-26T00:32:21.475Z,18.10
2018-07-26T00:39:46.135Z,18.10
2018-07-26T00:42:14.164Z,18.10
2018-07-26T00:44:43.236Z,18.00
2018-07-26T00:47:11.964Z,18.00
2018-07-26T00:49:40.627Z,18.00
2018-07-26T00:52:08.536Z,18.00
2018-07-26T00:54:36.499Z,18.10
2018-07-26T00:57:05.010Z,18.00
2018-07-26T00:59:32.909Z,18.10
2018-07-26T01:02:00.798Z,18.10
2018-07-26T01:09:24.708Z,18.00
2018-07-26T01:11:53.401Z,18.00
2018-07-26T01:14:21.376Z,17.90
2018-07-26T01:16:49.420Z,17.90
2018-07-26T01:19:17.399Z,17.80
2018-07-26T01:21:45.327Z,17.70
2018-07-26T01:24:13.329Z,17.80
2018-07-26T01:26:41.355Z,17.80
2018-07-26T01:29:09.282Z,17.70
2018-07-26T01:31:37.173Z,17.70
2018-07-26T01:34:05.984Z,17.70
2018-07-26T01:36:34.432Z,17.70
2018-07-26T01:39:03.490Z,17.70
2018-07-26T01:44:11.299Z,17.60
2018-07-26T01:49:06.942Z,17.30
2018-07-26T01:54:02.573Z,17.20
2018-07-26T01:56:30.552Z,17.20
2018-07-26T02:03:54.087Z,17.10
2018-07-26T02:06:22.432Z,17.10
2018-07-26T02:08:50.996Z,17.10
2018-07-26T02:11:18.922Z,17.10
2018-07-26T02:13:46.825Z,17.10
2018-07-26T02:16:14.723Z,17.10
2018-07-26T02:21:10.439Z,17.00
2018-07-26T02:23:38.343Z,17.10
2018-07-26T02:26:06.831Z,17.20
2018-07-26T02:28:36.459Z,17.20
2018-07-26T02:31:05.168Z,17.20
2018-07-26T02:33:33.543Z,17.10
2018-07-26T02:36:01.501Z,17.00
2018-07-26T02:38:29.551Z,17.00
2018-07-26T02:40:57.427Z,17.00
2018-07-26T02:43:25.349Z,16.90
2018-07-26T02:48:21.040Z,16.80
2018-07-26T02:50:48.995Z,16.80
2018-07-26T02:53:16.899Z,16.70
2018-07-26T02:55:44.844Z,16.60
2018-07-26T02:58:12.738Z,16.60
2018-07-26T03:00:40.598Z,16.50
2018-07-26T03:03:08.548Z,16.70
2018-07-26T03:05:37.168Z,16.50
2018-07-26T03:08:05.779Z,16.40
2018-07-26T03:10:33.739Z,16.30
2018-07-26T03:13:01.752Z,16.20
2018-07-26T03:15:29.721Z,16.10
2018-07-26T03:17:58.240Z,16.00
2018-07-26T03:20:26.993Z,16.00
2018-07-26T03:22:54.904Z,16.00
2018-07-26T03:25:22.826Z,16.10
2018-07-26T03:27:51.200Z,16.10
2018-07-26T03:30:19.306Z,16.20
2018-07-26T03:32:47.234Z,16.20
2018-07-26T03:35:15.156Z,16.30
2018-07-26T03:40:10.844Z,16.30
2018-07-26T03:42:38.815Z,16.30
2018-07-26T03:45:06.801Z,16.40
2018-07-26T03:47:34.691Z,16.30
2018-07-26T03:50:02.751Z,16.20
2018-07-26T03:54:59.229Z,15.90
2018-07-26T03:57:27.140Z,15.90
2018-07-26T03:59:55.735Z,15.90
2018-07-26T04:02:23.675Z,16.00
2018-07-26T04:04:51.665Z,16.10
2018-07-26T04:07:19.576Z,16.10
2018-07-26T04:12:16.184Z,16.20
2018-07-26T04:14:44.734Z,16.30
2018-07-26T04:17:12.624Z,16.30
2018-07-26T04:19:41.312Z,16.30
2018-07-26T04:22:10.067Z,16.30
2018-07-26T04:24:38.547Z,16.30
2018-07-26T04:27:06.722Z,16.50
2018-07-26T04:29:35.264Z,16.50
2018-07-26T04:32:03.399Z,16.50
2018-07-26T04:34:31.238Z,16.70
2018-07-26T04:36:59.135Z,16.70
2018-07-26T04:39:27.796Z,16.70
2018-07-26T04:44:23.995Z,16.80
2018-07-26T04:46:52.512Z,16.90
2018-07-26T04:49:20.895Z,17.00
2018-07-26T04:54:16.643Z,17.00
2018-07-26T04:56:45.947Z,17.10
2018-07-26T04:59:14.640Z,17.10
2018-07-26T05:01:42.602Z,17.20
2018-07-26T05:04:11.555Z,17.40
2018-07-26T05:06:40.159Z,17.50
2018-07-26T05:14:04.350Z,17.70
2018-07-26T05:16:34.564Z,17.80
2018-07-26T05:19:03.256Z,17.90
2018-07-26T05:21:31.185Z,18.00
2018-07-26T05:23:59.428Z,18.20
2018-07-26T05:28:55.112Z,18.50
2018-07-26T05:31:23.052Z,18.70
2018-07-26T05:33:51.009Z,18.80
2018-07-26T05:36:20.612Z,19.00
2018-07-26T05:38:48.707Z,19.30
2018-07-26T05:41:17.362Z,19.60
2018-07-26T05:43:45.897Z,20.00
2018-07-26T05:46:13.935Z,20.50
2018-07-26T05:48:41.858Z,21.00
2018-07-26T05:51:09.800Z,21.20
2018-07-26T05:53:37.727Z,21.70
2018-07-26T05:58:34.459Z,22.30
2018-07-26T06:01:02.600Z,22.50
2018-07-26T06:03:30.827Z,22.80
2018-07-26T06:08:27.303Z,23.30
2018-07-26T06:10:55.962Z,23.50
2018-07-26T06:15:51.661Z,23.90
2018-07-26T06:18:19.597Z,24.20
2018-07-26T06:20:47.577Z,24.40
2018-07-26T06:23:15.522Z,24.60
2018-07-26T06:25:43.580Z,25.10
2018-07-26T06:30:39.946Z,24.70
2018-07-26T06:33:08.057Z,24.70
2018-07-26T06:35:37.331Z,24.80
2018-07-26T06:38:06.710Z,24.70
2018-07-26T06:45:30.745Z,25.00
2018-07-26T06:47:59.368Z,24.90
2018-07-26T06:50:28.262Z,25.10
2018-07-26T06:52:56.759Z,25.30
2018-07-26T06:57:52.503Z,25.50
2018-07-26T07:00:20.670Z,25.60
2018-07-26T07:05:17.102Z,25.80
2018-07-26T07:07:45.010Z,26.00
2018-07-26T07:10:13.620Z,25.90
2018-07-26T07:15:10.228Z,25.90
2018-07-26T07:17:38.415Z,26.10
2018-07-26T07:20:07.725Z,26.10
2018-07-26T07:22:35.688Z,26.10
2018-07-26T07:25:04.316Z,26.30
2018-07-26T07:27:32.365Z,26.20
2018-07-26T07:32:22.802Z,26.40
2018-07-26T07:34:51.674Z,26.80
2018-07-26T07:37:19.974Z,26.70
2018-07-26T07:39:48.081Z,26.70
2018-07-26T07:44:43.669Z,26.70
2018-07-26T07:47:11.606Z,26.70
2018-07-26T07:49:39.639Z,26.60
2018-07-26T07:54:35.797Z,26.20
2018-07-26T07:57:03.791Z,26.20
2018-07-26T07:59:31.795Z,26.30
2018-07-26T08:01:59.691Z,26.40
2018-07-26T08:04:27.912Z,26.30
2018-07-26T08:06:55.814Z,26.30
2018-07-26T08:09:23.737Z,26.20
2018-07-26T08:11:51.731Z,26.50
2018-07-26T08:14:20.539Z,26.50
2018-07-26T08:16:48.798Z,26.90
2018-07-26T08:19:16.755Z,27.20
2018-07-26T08:21:44.690Z,27.10
2018-07-26T08:24:12.775Z,27.10
2018-07-26T08:26:40.828Z,27.00
2018-07-26T08:29:08.731Z,26.90
2018-07-26T08:31:36.689Z,26.90
2018-07-26T08:34:05.048Z,26.90
2018-07-26T08:36:33.032Z,27.00
2018-07-26T08:39:02.124Z,27.30
2018-07-26T08:41:30.029Z,27.50
2018-07-26T08:43:57.995Z,27.20
2018-07-26T08:46:26.025Z,26.90
2018-07-26T08:48:53.975Z,26.80
2018-07-26T08:51:21.877Z,27.00
2018-07-26T08:53:49.798Z,27.00
2018-07-26T08:56:18.009Z,27.00
2018-07-26T09:03:41.816Z,26.90
2018-07-26T09:06:10.391Z,26.90
2018-07-26T09:08:38.982Z,26.90
2018-07-26T09:11:06.909Z,26.80
2018-07-26T09:13:34.877Z,26.90
2018-07-26T09:16:02.917Z,26.90
2018-07-26T09:18:30.968Z,27.00
2018-07-26T09:23:23.288Z,27.00
2018-07-26T09:25:51.255Z,26.90
2018-07-26T09:28:19.539Z,26.90
2018-07-26T09:30:48.067Z,27.20
2018-07-26T09:33:16.135Z,27.60
2018-07-26T09:35:44.010Z,27.70
2018-07-26T09:38:12.160Z,27.60
2018-07-26T09:40:40.861Z,27.60
2018-07-26T09:43:08.762Z,27.80
2018-07-26T09:45:36.688Z,28.00
2018-07-26T09:48:04.655Z,28.10
2018-07-26T09:50:32.524Z,28.10
2018-07-26T09:53:00.402Z,27.90
2018-07-26T09:57:57.249Z,27.40
2018-07-26T10:02:58.573Z,27.30
2018-07-26T10:05:26.474Z,27.20
2018-07-26T10:10:22.754Z,27.60
2018-07-26T10:12:52.511Z,27.90
2018-07-26T10:15:20.559Z,28.40
2018-07-26T10:17:48.605Z,28.80
2018-07-26T10:20:16.607Z,28.90
2018-07-26T10:22:44.531Z,28.80
2018-07-26T10:27:40.243Z,28.40
2018-07-26T10:30:08.529Z,28.40
2018-07-26T10:32:36.976Z,28.60
2018-07-26T10:35:05.280Z,28.60
2018-07-26T10:40:00.975Z,28.40
2018-07-26T10:42:28.853Z,28.30
2018-07-26T10:44:57.369Z,27.90
2018-07-26T10:47:25.249Z,27.60
2018-07-26T10:49:54.730Z,27.30
2018-07-26T10:54:50.656Z,27.00
2018-07-26T10:57:18.628Z,26.80
2018-07-26T10:59:46.576Z,26.80
2018-07-26T11:02:14.534Z,26.90
2018-07-26T11:04:43.596Z,26.90
2018-07-26T11:07:11.535Z,26.90
2018-07-26T11:12:07.781Z,27.10
2018-07-26T11:14:36.222Z,27.00
2018-07-26T11:17:04.165Z,27.10
2018-07-26T11:19:32.084Z,27.20
2018-07-26T11:24:28.515Z,27.60
2018-07-26T11:26:57.096Z,27.80
2018-07-26T11:29:25.008Z,28.20
2018-07-26T11:34:20.786Z,28.90
2018-07-26T11:36:48.713Z,29.20
2018-07-26T11:39:16.660Z,29.40
2018-07-26T11:41:44.648Z,29.40
2018-07-26T11:44:12.685Z,29.10
2018-07-26T11:46:40.625Z,29.00
2018-07-26T11:49:08.509Z,29.00
2018-07-26T11:51:36.494Z,29.30
2018-07-26T11:54:04.473Z,29.30
2018-07-26T11:56:32.428Z,29.30
2018-07-26T11:59:01.576Z,29.30
2018-07-26T12:01:29.541Z,29.20
2018-07-26T12:03:57.494Z,29.30
2018-07-26T12:06:25.448Z,29.30
2018-07-26T12:08:53.369Z,29.60
2018-07-26T12:11:21.320Z,29.50
2018-07-26T12:13:49.242Z,29.60
2018-07-26T12:16:17.187Z,29.60
2018-07-26T12:18:45.200Z,29.60
2018-07-26T12:21:13.604Z,29.80
2018-07-26T12:23:41.493Z,29.80
2018-07-26T12:26:09.438Z,29.80
2018-07-26T12:31:05.552Z,29.70
2018-07-26T12:33:33.463Z,29.70
2018-07-26T12:36:01.367Z,29.60
2018-07-26T12:38:29.297Z,29.30
2018-07-26T12:40:57.246Z,29.00
2018-07-26T12:43:25.246Z,28.90
2018-07-26T12:45:53.960Z,28.70
2018-07-26T12:48:21.909Z,28.60
2018-07-26T12:50:51.078Z,28.70
2018-07-26T12:55:46.900Z,28.60
2018-07-26T13:00:43.833Z,27.80
2018-07-26T13:03:13.084Z,27.00
2018-07-26T13:05:41.018Z,26.20
2018-07-26T13:08:09.679Z,25.50
2018-07-26T13:10:38.179Z,25.00
2018-07-26T13:13:06.134Z,24.70
2018-07-26T13:15:36.152Z,24.30
2018-07-26T13:18:04.733Z,24.10
2018-07-26T13:20:32.687Z,23.80
2018-07-26T13:25:28.552Z,23.50
2018-07-26T13:27:56.470Z,23.40
2018-07-26T13:30:24.499Z,23.40
2018-07-26T13:32:52.426Z,23.40
2018-07-26T13:35:21.471Z,23.40
2018-07-26T13:40:17.257Z,23.10
2018-07-26T13:42:45.328Z,23.10
2018-07-26T13:45:18.495Z,23.00
2018-07-26T13:47:46.398Z,22.90
2018-07-26T13:50:14.299Z,22.90
2018-07-26T13:52:42.260Z,23.00
2018-07-26T13:55:10.234Z,22.90
2018-07-26T13:57:38.173Z,22.90
2018-07-26T14:00:06.379Z,22.90
2018-07-26T14:05:03.481Z,23.00
2018-07-26T14:07:31.751Z,23.10
2018-07-26T14:09:59.785Z,23.30
2018-07-26T14:12:28.717Z,23.30
2018-07-26T14:17:25.469Z,23.60
2018-07-26T14:19:53.688Z,23.60
2018-07-26T14:22:22.034Z,23.70
2018-07-26T14:24:50.092Z,23.80
2018-07-26T14:27:17.996Z,23.90
2018-07-26T14:29:46.031Z,24.00
2018-07-26T14:32:14.077Z,24.00
2018-07-26T14:34:41.983Z,24.00
2018-07-26T14:37:09.916Z,24.10
2018-07-26T14:39:37.891Z,24.10
2018-07-26T14:42:06.627Z,24.20
2018-07-26T14:47:02.426Z,24.50
2018-07-26T14:49:30.829Z,24.50
2018-07-26T14:51:59.479Z,24.60
2018-07-26T14:56:55.808Z,24.70
2018-07-26T14:59:24.564Z,24.90
2018-07-26T15:01:52.713Z,25.10
2018-07-26T15:06:48.458Z,25.30
2018-07-26T15:09:16.408Z,25.60
2018-07-26T15:11:44.384Z,25.70
2018-07-26T15:14:13.958Z,25.60
2018-07-26T15:16:42.051Z,25.80
2018-07-26T15:24:06.347Z,26.60
2018-07-26T15:26:34.299Z,26.80
2018-07-26T15:29:02.170Z,27.00
2018-07-26T15:31:30.663Z,27.10
2018-07-26T15:33:58.780Z,27.30
2018-07-26T15:36:27.128Z,27.40
2018-07-26T15:38:55.312Z,27.20
2018-07-26T15:41:23.522Z,27.10
2018-07-26T15:43:51.414Z,27.00
2018-07-26T15:46:19.295Z,26.90
2018-07-26T15:48:47.279Z,26.90
2018-07-26T15:53:44.355Z,26.70
2018-07-26T15:56:12.256Z,26.60
2018-07-26T15:58:40.298Z,26.50
2018-07-26T16:01:08.321Z,26.30
2018-07-26T16:03:36.358Z,26.10
2018-07-26T16:06:04.393Z,26.00
2018-07-26T16:08:32.342Z,26.00
2018-07-26T16:11:00.362Z,25.90
2018-07-26T16:13:28.342Z,25.80
2018-07-26T16:15:57.858Z,25.80
2018-07-26T16:18:25.756Z,25.80
2018-07-26T16:20:53.766Z,25.70
2018-07-26T16:23:21.730Z,25.70
2018-07-26T16:25:49.778Z,25.60
2018-07-26T16:28:17.652Z,25.60
2018-07-26T16:30:45.528Z,25.40
2018-07-26T16:33:13.470Z,25.40
2018-07-26T16:35:42.181Z,25.30
2018-07-26T16:38:10.737Z,25.40
2018-07-26T16:40:38.651Z,25.30
2018-07-26T16:45:36.000Z,25.30
2018-07-26T16:48:04.648Z,25.30
2018-07-26T16:50:33.155Z,25.20
2018-07-26T16:53:01.081Z,25.20
2018-07-26T16:55:30.685Z,25.10
2018-07-26T16:57:58.607Z,25.10
2018-07-26T17:00:26.527Z,25.00
2018-07-26T17:02:54.419Z,25.00
2018-07-26T17:05:22.366Z,25.00
2018-07-26T17:07:50.290Z,25.00
2018-07-26T17:10:18.530Z,25.10
2018-07-26T17:12:46.475Z,25.00
2018-07-26T17:15:14.497Z,25.00
2018-07-26T17:17:42.725Z,25.10
2018-07-26T17:20:10.686Z,25.10
2018-07-26T17:22:38.635Z,25.10
2018-07-26T17:30:04.701Z,25.10
2018-07-26T17:32:33.412Z,25.10
2018-07-26T17:35:01.668Z,25.10
2018-07-26T17:39:57.308Z,25.00
2018-07-26T17:47:21.766Z,25.00
2018-07-26T17:49:49.655Z,24.90
2018-07-26T17:52:18.168Z,24.90
2018-07-26T17:57:14.886Z,24.90
2018-07-26T17:59:44.237Z,24.90
2018-07-26T18:04:41.413Z,24.80
2018-07-26T18:07:09.496Z,24.80
2018-07-26T18:09:38.031Z,24.70
2018-07-26T18:12:05.968Z,24.70
2018-07-26T18:14:33.932Z,24.70
2018-07-26T18:17:03.196Z,24.60
2018-07-26T18:21:59.525Z,24.60
2018-07-26T18:24:28.468Z,24.50
2018-07-26T18:26:58.433Z,24.60
2018-07-26T18:29:27.338Z,24.50
2018-07-26T18:31:55.275Z,24.50
2018-07-26T18:34:24.005Z,24.50
2018-07-26T18:36:51.928Z,24.50
2018-07-26T18:41:48.013Z,24.30
2018-07-26T18:44:17.053Z,24.20
2018-07-26T18:46:44.996Z,24.20
2018-07-26T18:51:41.238Z,24.10
2018-07-26T18:54:10.380Z,24.10
2018-07-26T18:56:38.255Z,24.10
2018-07-26T18:59:06.210Z,24.20
2018-07-26T19:01:34.176Z,24.20
2018-07-26T19:04:02.143Z,24.10
2018-07-26T19:06:30.102Z,24.00
2018-07-26T19:08:58.043Z,23.90
2018-07-26T19:11:25.940Z,23.80
2018-07-26T19:13:54.049Z,23.70
2018-07-26T19:16:23.596Z,23.60
2018-07-26T19:18:52.357Z,23.70
2018-07-26T19:21:20.334Z,23.70
2018-07-26T19:23:48.366Z,23.60
2018-07-26T19:26:16.287Z,23.60
2018-07-26T19:28:47.730Z,23.60
2018-07-26T19:31:15.649Z,23.50
2018-07-26T19:33:43.528Z,23.40
2018-07-26T19:38:40.528Z,23.40
2018-07-26T19:41:08.935Z,23.30
2018-07-26T19:43:37.532Z,23.20
2018-07-26T19:46:05.438Z,23.20
2018-07-26T19:48:33.531Z,23.10
2018-07-26T19:51:02.252Z,23.00
2018-07-26T19:53:30.142Z,23.00
2018-07-26T19:55:58.772Z,23.00
2018-07-26T19:58:27.196Z,22.90
2018-07-26T20:00:55.132Z,22.90
2018-07-26T20:03:23.871Z,22.80
2018-07-26T20:10:47.306Z,22.70
2018-07-26T20:13:15.318Z,22.60
2018-07-26T20:15:43.831Z,22.40
2018-07-26T20:20:40.270Z,22.30
2018-07-26T20:25:40.016Z,22.30
2018-07-26T20:28:08.652Z,22.40
2018-07-26T20:30:36.582Z,22.40
2018-07-26T20:33:05.850Z,22.40
2018-07-26T20:35:35.131Z,22.30
2018-07-26T20:38:03.849Z,22.20
2018-07-26T20:40:31.883Z,22.30
2018-07-26T20:43:00.445Z,22.20
2018-07-26T20:45:28.839Z,22.20
2018-07-26T20:47:56.853Z,22.20
2018-07-26T20:50:25.805Z,22.10
2018-07-26T20:52:54.288Z,22.10
2018-07-26T20:55:23.456Z,22.00
2018-07-26T20:57:51.377Z,21.90
2018-07-26T21:00:19.355Z,21.90
2018-07-26T21:02:47.337Z,21.80
2018-07-26T21:10:12.039Z,21.80
2018-07-26T21:12:40.462Z,21.70
2018-07-26T21:17:38.116Z,21.50
2018-07-26T21:22:34.597Z,21.60
2018-07-26T21:25:03.192Z,21.70
2018-07-26T21:27:31.469Z,21.60
2018-07-26T21:29:59.379Z,21.70
2018-07-26T21:32:27.305Z,21.70
2018-07-26T21:34:55.202Z,21.60
2018-07-26T21:37:23.105Z,21.60
2018-07-26T21:42:20.079Z,21.50
2018-07-26T21:44:47.992Z,21.50
2018-07-26T21:47:15.929Z,21.40
2018-07-26T21:49:44.626Z,21.40
2018-07-26T21:52:12.482Z,21.40
2018-07-26T21:57:08.083Z,21.30
2018-07-26T21:59:36.261Z,21.20
2018-07-26T22:02:06.501Z,21.20
2018-07-26T22:07:02.548Z,21.10
2018-07-26T22:09:31.406Z,21.00
2018-07-26T22:11:59.313Z,20.90
2018-07-26T22:16:54.937Z,20.90
2018-07-26T22:21:51.266Z,20.90
2018-07-26T22:24:19.821Z,20.80
2018-07-26T22:26:47.870Z,20.70
2018-07-26T22:29:15.771Z,20.70
2018-07-26T22:31:43.683Z,20.70
2018-07-26T22:39:09.831Z,20.80
2018-07-26T22:41:37.783Z,20.80
2018-07-26T22:46:35.510Z,20.90
2018-07-26T22:49:03.425Z,20.80
2018-07-26T22:51:32.151Z,20.80
2018-07-26T22:54:00.503Z,20.80
2018-07-26T22:56:28.425Z,20.80
2018-07-26T22:58:56.539Z,20.70
2018-07-26T23:01:25.049Z,20.70
2018-07-26T23:06:21.425Z,20.60
2018-07-26T23:08:49.301Z,20.60
2018-07-26T23:11:17.248Z,20.60
2018-07-26T23:13:45.164Z,20.50
2018-07-26T23:16:13.725Z,20.50
2018-07-26T23:18:41.665Z,20.40
2018-07-26T23:21:10.224Z,20.40
2018-07-26T23:26:05.844Z,20.30
2018-07-26T23:28:33.763Z,20.20
2018-07-26T23:31:01.632Z,20.10
2018-07-26T23:33:29.528Z,20.10
2018-07-26T23:35:57.539Z,20.10
2018-07-26T23:40:54.016Z,20.00
2018-07-26T23:43:21.892Z,20.00
2018-07-26T23:45:49.875Z,20.10
2018-07-26T23:48:17.987Z,20.00
2018-07-26T23:55:41.676Z,20.10
2018-07-26T23:58:10.832Z,20.10
